N694PB KORL-KCHS
Flight info
| Callsign | N694PB |
|---|---|
| Flight time | 1h 8m |
| Altitude | 29000 |
| Route | ZERBO Q87 VIYAP Q69 ISUZO SAV |
| Aircraft | TBM9/L-SDFGRWY/L |
Departure
| Time | 2026-04-27 16:27 |
|---|---|
| Airport | Orlando Executive Airport (KORL) |
Arrival
| Time | 2026-04-27 17:35 |
|---|---|
| Airport | Charleston International Airport (KCHS) |
| Time | Latitude | Longitude | Altitude | Speed | Heading |
|---|---|---|---|---|---|
| 2026-04-27 16:15 | 28.54860 | -81.33518 | 115 ft | 0 kts | 28° |
| 2026-04-27 16:23 | 28.54862 | -81.33517 | 115 ft | 2 kts | 37° |
| 2026-04-27 16:24 | 28.54853 | -81.33482 | 114 ft | 10 kts | 182° |
| 2026-04-27 16:24 | 28.54676 | -81.33627 | 114 ft | 18 kts | 221° |
| 2026-04-27 16:25 | 28.54602 | -81.33622 | 111 ft | 8 kts | 129° |
| 2026-04-27 16:25 | 28.54511 | -81.33502 | 112 ft | 11 kts | 128° |
| 2026-04-27 16:26 | 28.54593 | -81.33112 | 117 ft | 62 kts | 69° |
| 2026-04-27 16:26 | 28.55121 | -81.31698 | 308 ft | 126 kts | 66° |
| 2026-04-27 16:27 | 28.55985 | -81.29520 | 758 ft | 162 kts | 67° |
| 2026-04-27 16:27 | 28.58222 | -81.26623 | 2129 ft | 162 kts | 46° |
| 2026-04-27 16:28 | 28.59742 | -81.24712 | 2971 ft | 163 kts | 47° |
| 2026-04-27 16:28 | 28.61274 | -81.22786 | 3794 ft | 166 kts | 47° |
| 2026-04-27 16:29 | 28.64250 | -81.21731 | 5050 ft | 174 kts | 345° |
| 2026-04-27 16:30 | 28.66602 | -81.22554 | 5885 ft | 181 kts | 347° |
| 2026-04-27 16:30 | 28.69033 | -81.23222 | 6949 ft | 180 kts | 347° |
| 2026-04-27 16:31 | 28.72760 | -81.24250 | 8151 ft | 185 kts | 346° |
| 2026-04-27 16:31 | 28.75271 | -81.24940 | 8968 ft | 189 kts | 346° |
| 2026-04-27 16:32 | 28.77832 | -81.25650 | 9875 ft | 189 kts | 345° |
| 2026-04-27 16:32 | 28.79112 | -81.25998 | 10288 ft | 191 kts | 345° |
| 2026-04-27 16:33 | 28.81718 | -81.26716 | 11143 ft | 192 kts | 345° |
| 2026-04-27 16:33 | 28.83010 | -81.27071 | 11647 ft | 189 kts | 345° |
| 2026-04-27 16:33 | 28.84314 | -81.27436 | 11982 ft | 195 kts | 345° |
| 2026-04-27 16:33 | 28.85641 | -81.27801 | 12369 ft | 197 kts | 344° |
| 2026-04-27 16:34 | 28.86966 | -81.28167 | 12796 ft | 197 kts | 344° |
| 2026-04-27 16:34 | 28.88291 | -81.28533 | 13241 ft | 197 kts | 345° |
| 2026-04-27 16:34 | 28.89635 | -81.28903 | 13600 ft | 201 kts | 345° |
| 2026-04-27 16:34 | 28.91001 | -81.29278 | 13994 ft | 201 kts | 345° |
| 2026-04-27 16:35 | 28.92391 | -81.29509 | 14367 ft | 203 kts | 354° |
| 2026-04-27 16:35 | 28.93806 | -81.29605 | 14712 ft | 204 kts | 354° |
| 2026-04-27 16:35 | 28.96661 | -81.29844 | 15446 ft | 205 kts | 354° |
| 2026-04-27 16:36 | 28.98085 | -81.29956 | 15809 ft | 206 kts | 354° |
| 2026-04-27 16:36 | 28.99525 | -81.30069 | 16137 ft | 209 kts | 354° |
| 2026-04-27 16:36 | 29.00971 | -81.30184 | 16514 ft | 208 kts | 354° |
| 2026-04-27 16:36 | 29.02415 | -81.30299 | 16868 ft | 209 kts | 354° |
| 2026-04-27 16:37 | 29.03877 | -81.30416 | 17192 ft | 212 kts | 355° |
| 2026-04-27 16:37 | 29.05343 | -81.30531 | 17587 ft | 211 kts | 355° |
| 2026-04-27 16:37 | 29.06810 | -81.30649 | 17967 ft | 212 kts | 355° |
| 2026-04-27 16:37 | 29.08290 | -81.30766 | 18328 ft | 215 kts | 355° |
| 2026-04-27 16:38 | 29.09782 | -81.30883 | 18688 ft | 215 kts | 355° |
| 2026-04-27 16:38 | 29.11250 | -81.31001 | 19010 ft | 215 kts | 354° |
| 2026-04-27 16:38 | 29.12747 | -81.31120 | 19301 ft | 217 kts | 355° |
| 2026-04-27 16:38 | 29.14253 | -81.31240 | 19613 ft | 217 kts | 355° |
| 2026-04-27 16:39 | 29.15763 | -81.31360 | 19948 ft | 218 kts | 354° |
| 2026-04-27 16:39 | 29.17280 | -81.31480 | 20257 ft | 219 kts | 354° |
| 2026-04-27 16:39 | 29.18805 | -81.31602 | 20583 ft | 220 kts | 354° |
| 2026-04-27 16:39 | 29.20333 | -81.31724 | 20915 ft | 220 kts | 354° |
| 2026-04-27 16:40 | 29.21864 | -81.31846 | 21235 ft | 221 kts | 354° |
| 2026-04-27 16:40 | 29.23402 | -81.31968 | 21559 ft | 222 kts | 354° |
| 2026-04-27 16:40 | 29.24943 | -81.32091 | 21884 ft | 222 kts | 354° |
| 2026-04-27 16:40 | 29.26489 | -81.32214 | 22206 ft | 224 kts | 354° |
| 2026-04-27 16:41 | 29.28051 | -81.32327 | 22510 ft | 226 kts | 355° |
| 2026-04-27 16:41 | 29.29622 | -81.32411 | 22839 ft | 226 kts | 355° |
| 2026-04-27 16:41 | 29.31194 | -81.32511 | 23153 ft | 227 kts | 355° |
| 2026-04-27 16:41 | 29.32774 | -81.32607 | 23475 ft | 228 kts | 355° |
| 2026-04-27 16:42 | 29.34360 | -81.32700 | 23776 ft | 229 kts | 355° |
| 2026-04-27 16:42 | 29.35955 | -81.32793 | 24035 ft | 230 kts | 355° |
| 2026-04-27 16:42 | 29.37555 | -81.32887 | 24297 ft | 231 kts | 355° |
| 2026-04-27 16:42 | 29.39161 | -81.32982 | 24550 ft | 232 kts | 355° |
| 2026-04-27 16:43 | 29.40774 | -81.33077 | 24811 ft | 233 kts | 355° |
| 2026-04-27 16:43 | 29.42396 | -81.33173 | 25092 ft | 234 kts | 355° |
| 2026-04-27 16:43 | 29.44027 | -81.33268 | 25382 ft | 235 kts | 355° |
| 2026-04-27 16:43 | 29.45665 | -81.33365 | 25646 ft | 236 kts | 355° |
| 2026-04-27 16:44 | 29.47309 | -81.33462 | 25904 ft | 237 kts | 354° |
| 2026-04-27 16:44 | 29.48962 | -81.33559 | 26177 ft | 239 kts | 354° |
| 2026-04-27 16:44 | 29.50623 | -81.33657 | 26444 ft | 239 kts | 354° |
| 2026-04-27 16:44 | 29.52290 | -81.33755 | 26695 ft | 241 kts | 354° |
| 2026-04-27 16:45 | 29.53966 | -81.33854 | 26941 ft | 242 kts | 354° |
| 2026-04-27 16:45 | 29.55657 | -81.33955 | 27135 ft | 246 kts | 355° |
| 2026-04-27 16:45 | 29.57369 | -81.34056 | 27379 ft | 247 kts | 355° |
| 2026-04-27 16:45 | 29.59087 | -81.34157 | 27630 ft | 248 kts | 355° |
| 2026-04-27 16:46 | 29.60814 | -81.34258 | 27872 ft | 249 kts | 355° |
| 2026-04-27 16:46 | 29.62548 | -81.34361 | 28109 ft | 250 kts | 355° |
| 2026-04-27 16:46 | 29.64288 | -81.34464 | 28345 ft | 251 kts | 355° |
| 2026-04-27 16:46 | 29.66039 | -81.34567 | 28582 ft | 252 kts | 355° |
| 2026-04-27 16:47 | 29.67794 | -81.34671 | 28805 ft | 253 kts | 355° |
| 2026-04-27 16:47 | 29.69559 | -81.34775 | 29023 ft | 254 kts | 355° |
| 2026-04-27 16:47 | 29.71331 | -81.34880 | 29194 ft | 257 kts | 355° |
| 2026-04-27 16:47 | 29.73148 | -81.34987 | 29201 ft | 265 kts | 355° |
| 2026-04-27 16:48 | 29.75016 | -81.35096 | 29204 ft | 272 kts | 355° |
| 2026-04-27 16:48 | 29.76924 | -81.35209 | 29211 ft | 277 kts | 355° |
| 2026-04-27 16:48 | 29.78869 | -81.35323 | 29218 ft | 282 kts | 355° |
| 2026-04-27 16:49 | 29.82842 | -81.35558 | 29222 ft | 289 kts | 355° |
| 2026-04-27 16:49 | 29.84862 | -81.35678 | 29227 ft | 292 kts | 355° |
| 2026-04-27 16:49 | 29.86901 | -81.35800 | 29225 ft | 295 kts | 355° |
| 2026-04-27 16:49 | 29.88961 | -81.35921 | 29230 ft | 297 kts | 355° |
| 2026-04-27 16:50 | 29.91003 | -81.36042 | 29224 ft | 299 kts | 355° |
| 2026-04-27 16:50 | 29.93084 | -81.36166 | 29225 ft | 300 kts | 355° |
| 2026-04-27 16:50 | 29.97270 | -81.36415 | 29229 ft | 302 kts | 355° |
| 2026-04-27 16:51 | 30.01472 | -81.36665 | 29226 ft | 303 kts | 355° |
| 2026-04-27 16:51 | 30.05688 | -81.36916 | 29228 ft | 304 kts | 355° |
| 2026-04-27 16:52 | 30.09914 | -81.37168 | 29219 ft | 304 kts | 355° |
| 2026-04-27 16:52 | 30.14153 | -81.37422 | 29217 ft | 306 kts | 355° |
| 2026-04-27 16:53 | 30.18407 | -81.37676 | 29210 ft | 306 kts | 355° |
| 2026-04-27 16:53 | 30.22671 | -81.37932 | 29205 ft | 307 kts | 355° |
| 2026-04-27 16:54 | 30.26946 | -81.38184 | 29223 ft | 308 kts | 355° |
| 2026-04-27 16:54 | 30.31261 | -81.38446 | 29226 ft | 309 kts | 355° |
| 2026-04-27 16:55 | 30.35562 | -81.38705 | 29222 ft | 310 kts | 355° |
| 2026-04-27 16:55 | 30.39873 | -81.38960 | 29220 ft | 311 kts | 355° |
| 2026-04-27 16:56 | 30.44160 | -81.39220 | 29223 ft | 311 kts | 355° |
| 2026-04-27 16:56 | 30.48482 | -81.39467 | 29221 ft | 311 kts | 356° |
| 2026-04-27 16:57 | 30.52806 | -81.39685 | 29235 ft | 311 kts | 355° |
| 2026-04-27 16:57 | 30.57131 | -81.39916 | 29237 ft | 311 kts | 355° |
| 2026-04-27 16:58 | 30.61458 | -81.40146 | 29238 ft | 311 kts | 356° |
| 2026-04-27 16:58 | 30.65785 | -81.40375 | 29237 ft | 311 kts | 356° |
| 2026-04-27 16:59 | 30.70113 | -81.40604 | 29238 ft | 312 kts | 355° |
| 2026-04-27 16:59 | 30.74449 | -81.40834 | 29231 ft | 312 kts | 355° |
| 2026-04-27 17:00 | 30.80960 | -81.41181 | 29226 ft | 312 kts | 355° |
| 2026-04-27 17:01 | 30.85306 | -81.41409 | 29225 ft | 313 kts | 356° |
| 2026-04-27 17:01 | 30.89654 | -81.41647 | 29219 ft | 313 kts | 355° |
| 2026-04-27 17:02 | 30.94002 | -81.41873 | 29221 ft | 313 kts | 355° |
| 2026-04-27 17:02 | 30.98350 | -81.42108 | 29227 ft | 313 kts | 355° |
| 2026-04-27 17:03 | 31.02702 | -81.42335 | 29228 ft | 313 kts | 355° |
| 2026-04-27 17:03 | 31.07050 | -81.42573 | 29229 ft | 313 kts | 356° |
| 2026-04-27 17:04 | 31.11401 | -81.42805 | 29227 ft | 313 kts | 356° |
| 2026-04-27 17:04 | 31.15757 | -81.43033 | 29229 ft | 313 kts | 355° |
| 2026-04-27 17:05 | 31.20111 | -81.43274 | 29228 ft | 313 kts | 356° |
| 2026-04-27 17:05 | 31.24438 | -81.43502 | 29259 ft | 314 kts | 355° |
| 2026-04-27 17:06 | 31.28814 | -81.43579 | 29259 ft | 315 kts | 358° |
| 2026-04-27 17:06 | 31.33207 | -81.43640 | 29258 ft | 316 kts | 358° |
| 2026-04-27 17:07 | 31.37609 | -81.43690 | 29255 ft | 317 kts | 358° |
| 2026-04-27 17:07 | 31.42020 | -81.43739 | 29250 ft | 317 kts | 358° |
| 2026-04-27 17:08 | 31.45719 | -81.43778 | 29248 ft | 318 kts | 359° |
| 2026-04-27 17:08 | 31.50071 | -81.42788 | 29255 ft | 322 kts | 17° |
| 2026-04-27 17:09 | 31.54304 | -81.41048 | 29243 ft | 323 kts | 17° |
| 2026-04-27 17:09 | 31.58517 | -81.39322 | 29242 ft | 323 kts | 17° |
| 2026-04-27 17:10 | 31.62763 | -81.37575 | 29244 ft | 323 kts | 17° |
| 2026-04-27 17:10 | 31.67014 | -81.35828 | 29249 ft | 324 kts | 17° |
| 2026-04-27 17:11 | 31.71265 | -81.34078 | 29248 ft | 324 kts | 18° |
| 2026-04-27 17:11 | 31.77640 | -81.31451 | 29246 ft | 322 kts | 18° |
| 2026-04-27 17:12 | 31.83869 | -81.28883 | 29228 ft | 311 kts | 17° |
| 2026-04-27 17:13 | 31.87966 | -81.27187 | 28804 ft | 319 kts | 18° |
| 2026-04-27 17:13 | 31.90084 | -81.26310 | 28377 ft | 326 kts | 18° |
| 2026-04-27 17:13 | 31.92226 | -81.25420 | 27942 ft | 327 kts | 18° |
| 2026-04-27 17:13 | 31.94370 | -81.24531 | 27507 ft | 326 kts | 17° |
| 2026-04-27 17:14 | 31.96527 | -81.23707 | 27065 ft | 325 kts | 12° |
| 2026-04-27 17:14 | 31.98746 | -81.23225 | 26641 ft | 323 kts | 8° |
| 2026-04-27 17:14 | 32.00967 | -81.22767 | 26216 ft | 324 kts | 9° |
| 2026-04-27 17:14 | 32.03186 | -81.22284 | 25785 ft | 324 kts | 9° |
| 2026-04-27 17:15 | 32.05407 | -81.21815 | 25404 ft | 325 kts | 8° |
| 2026-04-27 17:15 | 32.07632 | -81.21354 | 24983 ft | 325 kts | 8° |
| 2026-04-27 17:15 | 32.09858 | -81.20889 | 24570 ft | 325 kts | 8° |
| 2026-04-27 17:15 | 32.12051 | -81.20245 | 24152 ft | 327 kts | 18° |
| 2026-04-27 17:16 | 32.14103 | -81.19081 | 23702 ft | 329 kts | 29° |
| 2026-04-27 17:16 | 32.15935 | -81.17440 | 23240 ft | 333 kts | 40° |
| 2026-04-27 17:16 | 32.17464 | -81.15382 | 22798 ft | 335 kts | 51° |
| 2026-04-27 17:16 | 32.18848 | -81.13171 | 22347 ft | 335 kts | 51° |
| 2026-04-27 17:17 | 32.20245 | -81.10977 | 21901 ft | 334 kts | 51° |
| 2026-04-27 17:17 | 32.21633 | -81.08782 | 21460 ft | 333 kts | 51° |
| 2026-04-27 17:17 | 32.23009 | -81.06590 | 21018 ft | 332 kts | 51° |
| 2026-04-27 17:18 | 32.25753 | -81.02233 | 20142 ft | 329 kts | 52° |
| 2026-04-27 17:18 | 32.27117 | -81.00065 | 19709 ft | 328 kts | 52° |
| 2026-04-27 17:18 | 32.28474 | -80.97907 | 19280 ft | 327 kts | 52° |
| 2026-04-27 17:18 | 32.29826 | -80.95758 | 18848 ft | 325 kts | 52° |
| 2026-04-27 17:19 | 32.31173 | -80.93613 | 18408 ft | 324 kts | 52° |
| 2026-04-27 17:19 | 32.32508 | -80.91483 | 17963 ft | 321 kts | 52° |
| 2026-04-27 17:19 | 32.33816 | -80.89401 | 17548 ft | 318 kts | 52° |
| 2026-04-27 17:19 | 32.35126 | -80.87312 | 17129 ft | 315 kts | 53° |
| 2026-04-27 17:20 | 32.36424 | -80.85241 | 16718 ft | 312 kts | 53° |
| 2026-04-27 17:20 | 32.37712 | -80.83191 | 16311 ft | 309 kts | 53° |
| 2026-04-27 17:20 | 32.38990 | -80.81153 | 15906 ft | 307 kts | 53° |
| 2026-04-27 17:20 | 32.40254 | -80.79129 | 15506 ft | 305 kts | 54° |
| 2026-04-27 17:21 | 32.41512 | -80.77115 | 15106 ft | 304 kts | 54° |
| 2026-04-27 17:21 | 32.42764 | -80.75113 | 14705 ft | 302 kts | 54° |
| 2026-04-27 17:21 | 32.44010 | -80.73120 | 14309 ft | 301 kts | 55° |
| 2026-04-27 17:21 | 32.45251 | -80.71137 | 13898 ft | 299 kts | 55° |
| 2026-04-27 17:22 | 32.46475 | -80.69166 | 13494 ft | 296 kts | 55° |
| 2026-04-27 17:22 | 32.47692 | -80.67212 | 12969 ft | 296 kts | 55° |
| 2026-04-27 17:22 | 32.48919 | -80.65248 | 12463 ft | 296 kts | 55° |
| 2026-04-27 17:22 | 32.50135 | -80.63301 | 12060 ft | 292 kts | 55° |
| 2026-04-27 17:23 | 32.51333 | -80.61376 | 11647 ft | 289 kts | 55° |
| 2026-04-27 17:23 | 32.52518 | -80.59474 | 11264 ft | 286 kts | 55° |
| 2026-04-27 17:23 | 32.53694 | -80.57584 | 10888 ft | 284 kts | 55° |
| 2026-04-27 17:23 | 32.54861 | -80.55706 | 10513 ft | 282 kts | 55° |
| 2026-04-27 17:24 | 32.56021 | -80.53840 | 10150 ft | 281 kts | 55° |
| 2026-04-27 17:24 | 32.57177 | -80.51979 | 9756 ft | 279 kts | 54° |
| 2026-04-27 17:24 | 32.58322 | -80.50135 | 9386 ft | 277 kts | 54° |
| 2026-04-27 17:24 | 32.59462 | -80.48303 | 9026 ft | 275 kts | 54° |
| 2026-04-27 17:25 | 32.60589 | -80.46481 | 8660 ft | 273 kts | 54° |
| 2026-04-27 17:25 | 32.61718 | -80.44678 | 8302 ft | 272 kts | 52° |
| 2026-04-27 17:25 | 32.62898 | -80.42934 | 7942 ft | 270 kts | 52° |
| 2026-04-27 17:25 | 32.64058 | -80.41186 | 7590 ft | 267 kts | 52° |
| 2026-04-27 17:26 | 32.65191 | -80.39466 | 7246 ft | 262 kts | 52° |
| 2026-04-27 17:26 | 32.66314 | -80.37781 | 6904 ft | 259 kts | 51° |
| 2026-04-27 17:26 | 32.67430 | -80.36108 | 6560 ft | 258 kts | 52° |
| 2026-04-27 17:26 | 32.68313 | -80.34267 | 6215 ft | 257 kts | 68° |
| 2026-04-27 17:27 | 32.68771 | -80.32228 | 5877 ft | 256 kts | 81° |
| 2026-04-27 17:27 | 32.68957 | -80.30134 | 5536 ft | 254 kts | 82° |
| 2026-04-27 17:27 | 32.69170 | -80.28061 | 5201 ft | 253 kts | 81° |
| 2026-04-27 17:27 | 32.69383 | -80.25995 | 4862 ft | 251 kts | 83° |
| 2026-04-27 17:28 | 32.69576 | -80.23941 | 4527 ft | 249 kts | 83° |
| 2026-04-27 17:28 | 32.69765 | -80.21928 | 4208 ft | 248 kts | 83° |
| 2026-04-27 17:28 | 32.70160 | -80.17863 | 3557 ft | 248 kts | 83° |
| 2026-04-27 17:29 | 32.70348 | -80.15885 | 3234 ft | 231 kts | 83° |
| 2026-04-27 17:29 | 32.70657 | -80.14090 | 2978 ft | 214 kts | 65° |
| 2026-04-27 17:29 | 32.71615 | -80.12833 | 2770 ft | 205 kts | 30° |
| 2026-04-27 17:29 | 32.72971 | -80.12405 | 2611 ft | 201 kts | 11° |
| 2026-04-27 17:30 | 32.74321 | -80.12092 | 2475 ft | 196 kts | 20° |
| 2026-04-27 17:30 | 32.76782 | -80.10826 | 2162 ft | 190 kts | 26° |
| 2026-04-27 17:30 | 32.77975 | -80.10179 | 2015 ft | 188 kts | 25° |
| 2026-04-27 17:31 | 32.79163 | -80.09545 | 1871 ft | 186 kts | 26° |
| 2026-04-27 17:31 | 32.80308 | -80.08934 | 1747 ft | 167 kts | 26° |
| 2026-04-27 17:31 | 32.81269 | -80.08425 | 1624 ft | 139 kts | 25° |
| 2026-04-27 17:31 | 32.82115 | -80.07975 | 1442 ft | 133 kts | 25° |
| 2026-04-27 17:32 | 32.82949 | -80.07525 | 1274 ft | 131 kts | 25° |
| 2026-04-27 17:32 | 32.84536 | -80.06679 | 935 ft | 107 kts | 25° |
| 2026-04-27 17:32 | 32.85142 | -80.06356 | 787 ft | 87 kts | 27° |
| 2026-04-27 17:33 | 32.85658 | -80.06080 | 659 ft | 77 kts | 27° |
| 2026-04-27 17:33 | 32.86100 | -80.05847 | 561 ft | 65 kts | 25° |
| 2026-04-27 17:33 | 32.86610 | -80.05576 | 477 ft | 93 kts | 28° |
| 2026-04-27 17:33 | 32.87209 | -80.05283 | 368 ft | 96 kts | 26° |
| 2026-04-27 17:34 | 32.87817 | -80.04915 | 215 ft | 96 kts | 29° |
| 2026-04-27 17:34 | 32.88408 | -80.04598 | 71 ft | 89 kts | 27° |
| 2026-04-27 17:34 | 32.88922 | -80.04322 | 33 ft | 70 kts | 28° |
| 2026-04-27 17:34 | 32.89296 | -80.04120 | 35 ft | 51 kts | 24° |
| 2026-04-27 17:35 | 32.89581 | -80.03970 | 35 ft | 40 kts | 19° |
| 2026-04-27 17:35 | 32.89810 | -80.03846 | 33 ft | 33 kts | 22° |
| 2026-04-27 17:35 | 32.90001 | -80.03742 | 34 ft | 28 kts | 24° |
| 2026-04-27 17:35 | 32.90101 | -80.03691 | 36 ft | 0 kts | 28° |
| 2026-04-27 17:36 | 32.90107 | -80.03687 | 36 ft | 4 kts | 26° |
| 2026-04-27 17:36 | 32.90139 | -80.03657 | 37 ft | 7 kts | 66° |
| 2026-04-27 17:36 | 32.90133 | -80.03595 | 36 ft | 9 kts | 114° |
| 2026-04-27 17:36 | 32.90103 | -80.03516 | 36 ft | 11 kts | 127° |
| 2026-04-27 17:37 | 32.90024 | -80.03516 | 36 ft | 13 kts | 205° |
| 2026-04-27 17:37 | 32.89954 | -80.03555 | 35 ft | 8 kts | 205° |
| 2026-04-27 17:37 | 32.89899 | -80.03542 | 35 ft | 10 kts | 142° |
| 2026-04-27 17:37 | 32.89862 | -80.03513 | 35 ft | 0 kts | 149° |
| 2026-04-27 17:38 | 32.89849 | -80.03503 | 35 ft | 10 kts | 146° |
| 2026-04-27 17:38 | 32.89779 | -80.03431 | 35 ft | 15 kts | 120° |
| 2026-04-27 17:39 | 32.89742 | -80.03311 | 36 ft | 16 kts | 121° |
| 2026-04-27 17:39 | 32.89664 | -80.03222 | 36 ft | 11 kts | 138° |
| 2026-04-27 17:39 | 32.89688 | -80.03157 | 36 ft | 12 kts | 15° |
| 2026-04-27 17:39 | 32.89753 | -80.03174 | 36 ft | 6 kts | 64° |
| 2026-04-27 17:40 | 32.89749 | -80.03166 | 36 ft | 0 kts | 175° |